Terminal Aerodrome Forecast
Issued by NWS

Home | Current Version | Previous Version | Text Only | Print | Product List | Glossary On
Versions: 1 2 3 4 5 6 7 8 9 10 11 12 13 14 15 16 17 18 19
000
FTUS46 KMTR 261700
TAFSNS
TAF
KSNS 261720Z 2618/2718 VRB04KT P6SM SKC
     FM262100 29014KT P6SM SKC
     FM270300 30009KT P6SM BKN006
     FM271000 VRB03KT 4SM BR OVC005=

USA.gov is the U.S. government's official web portal to all federal, state and local government web resources and services.